Time;durP1;ratioP1;P1;durP2;ratioP2;P2;SDS_P1;SDS_P2;PMS_P1;PMS_P2;Temp;Humidity;BMP_temperature;BMP_pressure;BME280_temperature;BME280_humidity;BME280_pressure;Samples;Min_cycle;Max_cycle;Signal;HPM_P1;HPM_P2
2022/12/23 00:02:12;;;;;;;84.55;43.58;;;205.00;2252.80;;;;;;5063531;28;19968;-80
2022/12/23 00:04:37;;;;;;;;;;;205.00;2252.80;;;;;;5027457;28;20043;-79
2022/12/23 00:07:03;;;;;;;84.03;42.88;;;205.00;2252.80;;;;;;5030690;28;19928;-80
2022/12/23 00:09:29;;;;;;;;;;;205.00;2252.80;;;;;;5028842;28;20018;-80
2022/12/23 00:17:22;;;;;;;78.07;43.63;;;205.00;2252.80;;;;;;5024695;28;20032;-79
2022/12/23 00:19:48;;;;;;;;;;;205.10;2252.80;;;;;;5029510;28;20026;-80
2022/12/23 00:22:14;;;;;;;78.20;41.33;;;205.00;2252.80;;;;;;5027568;28;19959;-80
2022/12/23 00:24:39;;;;;;;;;;;204.90;2252.80;;;;;;5025010;28;20029;-79
2022/12/23 00:27:05;;;;;;;80.43;41.47;;;180.10;2252.80;;;;;;5026600;28;19905;-79
2022/12/23 00:29:30;;;;;;;;;;;179.90;2252.80;;;;;;5026343;28;20462;-79
2022/12/23 00:31:56;;;;;;;77.35;42.28;;;179.80;2252.80;;;;;;5024619;28;19909;-79
2022/12/23 00:34:22;;;;;;;;;;;179.70;2252.80;;;;;;5025458;28;20044;-79
2022/12/23 00:36:47;;;;;;;89.68;47.83;;;179.70;2252.80;;;;;;5030905;28;20285;-80
2022/12/23 00:44:41;;;;;;;102.88;52.85;;;179.70;2252.80;;;;;;5023065;28;20041;-77
2022/12/23 00:49:40;;;;;;;;;;;179.70;2252.80;;;;;;5060880;28;20037;-80
2022/12/23 00:49:52;;;;;;;97.88;52.65;;;179.70;2252.80;;;;;;5025453;28;19913;-79
2022/12/23 00:52:18;;;;;;;;;;;179.60;2252.80;;;;;;5028218;28;20513;-79
2022/12/23 00:54:44;;;;;;;96.32;52.13;;;179.70;2252.80;;;;;;5043750;28;20359;-80
2022/12/23 00:57:09;;;;;;;;;;;179.80;2252.80;;;;;;5026678;28;20026;-80
2022/12/23 00:59:35;;;;;;;104.15;55.25;;;179.80;2252.80;;;;;;5024857;28;20000;-79
2022/12/23 01:07:29;;;;;;;110.10;56.47;;;179.70;2252.80;;;;;;5025424;28;20076;-79
2022/12/23 01:09:55;;;;;;;;;;;179.70;2252.80;;;;;;5025869;28;20903;-79
2022/12/23 01:12:21;;;;;;;115.75;56.85;;;179.70;2252.80;;;;;;5058615;28;19960;-80
2022/12/23 01:14:47;;;;;;;101.13;56.00;;;179.70;2252.80;;;;;;5023377;28;20040;-79
2022/12/23 01:17:13;;;;;;;;;;;179.70;2252.80;;;;;;5025081;28;20381;-79
2022/12/23 01:19:39;;;;;;;105.80;56.97;;;179.70;2252.80;;;;;;5055830;28;19937;-79
2022/12/23 01:22:04;;;;;;;;;;;179.70;2252.80;;;;;;5025484;28;20466;-79
2022/12/23 01:24:31;;;;;;;116.72;60.97;;;179.70;2048.00;;;;;;5036850;28;19943;-79
2022/12/23 01:26:58;;;;;;;109.05;58.53;;;179.70;2099.20;;;;;;5025702;28;20017;-79
2022/12/23 01:29:24;;;;;;;116.25;64.20;;;179.70;2252.80;;;;;;5023105;28;20478;-79
2022/12/23 01:31:50;;;;;;;121.18;63.95;;;179.80;2073.60;;;;;;5024661;28;20620;-79
2022/12/23 01:34:15;;;;;;;;;;;179.90;2124.80;;;;;;5025484;28;20120;-79
2022/12/23 01:36:41;;;;;;;127.72;67.68;;;179.90;1996.80;;;;;;5055330;28;19925;-79
2022/12/23 01:39:06;;;;;;;;;;;180.00;2252.80;;;;;;5023256;28;20033;-79
2022/12/23 01:44:48;;;;;;;131.07;66.60;;;180.10;2252.80;;;;;;5024976;28;20028;-79
2022/12/23 01:47:29;;;;;;;105.68;53.60;;;204.80;2099.20;;;;;;5036832;28;20026;-79
2022/12/23 01:50:20;;;;;;;115.18;61.95;;;205.00;2252.80;;;;;;5030152;28;20030;-79
2022/12/23 01:52:55;;;;;;;120.43;64.28;;;205.20;2252.80;;;;;;5018967;28;20029;-79
2022/12/23 01:55:24;;;;;;;115.65;64.80;;;205.30;2252.80;;;;;;5037373;28;20060;-79
2022/12/23 01:57:51;;;;;;;117.50;64.22;;;205.30;2252.80;;;;;;5028325;28;20458;-79
2022/12/23 02:05:47;;;;;;;110.60;60.83;;;205.20;2252.80;;;;;;5025929;28;20071;-78
2022/12/23 02:11:18;;;;;;;;;;;205.10;2252.80;;;;;;5025446;28;20113;-79
2022/12/23 02:17:01;;;;;;;110.97;60.72;;;205.00;2252.80;;;;;;5025736;28;20447;-79
2022/12/23 02:20:18;;;;;;;113.68;66.07;;;205.00;2252.80;;;;;;5025603;28;20025;-79
2022/12/23 02:23:13;;;;;;;109.78;63.72;;;205.00;2252.80;;;;;;5024869;28;20036;-79
2022/12/23 02:25:56;;;;;;;116.78;61.60;;;205.10;2252.80;;;;;;5025108;28;20045;-80
2022/12/23 02:28:38;;;;;;;119.05;64.43;;;205.10;2252.80;;;;;;5039768;28;20088;-80
2022/12/23 02:31:19;;;;;;;115.25;63.85;;;205.00;2252.80;;;;;;5027128;28;20022;-79
2022/12/23 02:34:12;;;;;;;107.22;61.55;;;204.90;2252.80;;;;;;5024838;28;20032;-79
2022/12/23 02:37:03;;;;;;;115.82;64.20;;;205.00;2252.80;;;;;;5034774;28;20076;-79
2022/12/23 02:39:41;;;;;;;116.43;63.00;;;205.10;2252.80;;;;;;5014063;28;20474;-79
2022/12/23 02:42:36;;;;;;;120.65;66.20;;;205.00;2252.80;;;;;;5012697;28;20053;-79
2022/12/23 02:45:21;;;;;;;117.95;65.10;;;205.10;2252.80;;;;;;5029133;28;20080;-80
2022/12/23 02:47:54;;;;;;;114.85;65.88;;;205.10;2252.80;;;;;;5029398;28;20030;-80
2022/12/23 02:50:27;;;;;;;128.63;69.00;;;205.00;2252.80;;;;;;5013817;28;20033;-79
2022/12/23 02:52:57;;;;;;;117.00;66.53;;;205.00;2252.80;;;;;;5028803;28;20059;-80
2022/12/23 02:55:28;;;;;;;124.00;72.82;;;205.20;2252.80;;;;;;5012870;28;20064;-79
2022/12/23 02:57:56;;;;;;;124.38;71.13;;;205.10;2252.80;;;;;;5028331;28;20076;-79
2022/12/23 03:00:22;;;;;;;129.20;70.30;;;205.20;2252.80;;;;;;5013705;28;20033;-79
2022/12/23 03:02:48;;;;;;;;;;;205.10;2252.80;;;;;;5029375;28;20504;-79
2022/12/23 03:05:47;;;;;;;125.50;71.03;;;205.10;2252.80;;;;;;5029122;28;19906;-79
2022/12/23 03:08:17;;;;;;;124.15;69.40;;;205.10;2252.80;;;;;;5008111;28;20045;-79
2022/12/23 03:10:52;;;;;;;120.90;68.22;;;205.20;2252.80;;;;;;5008021;28;20128;-79
2022/12/23 03:13:41;;;;;;;129.85;71.22;;;205.10;2252.80;;;;;;5008079;28;20050;-79
2022/12/23 03:16:26;;;;;;;126.82;71.57;;;205.10;2252.80;;;;;;5008306;28;20062;-79
2022/12/23 03:19:16;;;;;;;139.27;74.95;;;205.20;2252.80;;;;;;5008081;28;20030;-80
2022/12/23 03:22:00;;;;;;;130.07;70.93;;;205.20;2252.80;;;;;;5008155;28;20030;-79
2022/12/23 03:24:35;;;;;;;140.48;75.05;;;205.20;2252.80;;;;;;5008037;28;20066;-80
2022/12/23 03:27:05;;;;;;;133.15;77.22;;;205.20;2252.80;;;;;;5007935;28;20026;-79
2022/12/23 03:29:45;;;;;;;139.43;78.82;;;205.20;2252.80;;;;;;4991895;28;20030;-80
2022/12/23 03:32:14;;;;;;;126.32;71.78;;;205.20;1894.40;;;;;;4991838;28;20510;-79
2022/12/23 03:34:46;;;;;;;129.75;73.60;;;205.20;2252.80;;;;;;4991659;28;20054;-80
2022/12/23 03:37:16;;;;;;;128.88;73.30;;;205.20;2252.80;;;;;;4991907;28;20034;-79
2022/12/23 03:39:48;;;;;;;124.18;70.22;;;205.20;1894.40;;;;;;5007628;28;20031;-79
2022/12/23 03:42:25;;;;;;;124.30;69.80;;;205.10;2252.80;;;;;;5007829;28;20033;-79
2022/12/23 03:44:53;;;;;;;125.13;69.97;;;205.20;1894.40;;;;;;5042962;28;20034;-79
2022/12/23 03:47:28;;;;;;;128.35;71.07;;;205.10;2252.80;;;;;;5029639;28;20069;-79
2022/12/23 03:49:59;;;;;;;133.23;74.43;;;205.00;2252.80;;;;;;5028596;28;20018;-79
2022/12/23 03:52:52;;;;;;;129.73;71.00;;;204.90;2252.80;;;;;;5025468;28;20021;-79
2022/12/23 03:55:24;;;;;;;121.70;69.25;;;204.90;2252.80;;;;;;5019013;28;20049;-80
2022/12/23 03:58:20;;;;;;;128.27;73.07;;;204.80;2252.80;;;;;;5025758;28;20018;-79
2022/12/23 04:01:12;;;;;;;124.30;69.90;;;204.90;2252.80;;;;;;5034457;28;20026;-80
2022/12/23 04:03:52;;;;;;;129.70;70.78;;;205.00;2252.80;;;;;;5027526;28;20104;-79
2022/12/23 04:06:19;;;;;;;133.65;70.32;;;205.00;2252.80;;;;;;5019776;28;20057;-79
2022/12/23 04:08:47;;;;;;;116.32;66.93;;;205.10;2201.60;;;;;;5025211;28;20021;-79
2022/12/23 04:11:13;;;;;;;116.28;64.43;;;205.20;2252.80;;;;;;5026319;28;20025;-79
2022/12/23 04:13:39;;;;;;;119.32;64.05;;;205.20;2252.80;;;;;;5020205;28;20108;-79
2022/12/23 04:16:05;;;;;;;;;;;205.20;2252.80;;;;;;5023525;28;20113;-79
2022/12/23 04:18:31;;;;;;;117.90;66.43;;;205.20;2252.80;;;;;;5025384;28;19932;-79
2022/12/23 04:20:57;;;;;;;;;;;205.20;2252.80;;;;;;5018307;28;20268;-79
2022/12/23 04:23:23;;;;;;;105.57;60.78;;;205.20;2252.80;;;;;;5018570;28;19910;-79
2022/12/23 04:25:48;;;;;;;;;;;205.10;2252.80;;;;;;5027676;28;20056;-79
2022/12/23 04:28:14;;;;;;;108.13;61.17;;;205.00;2252.80;;;;;;5028757;28;20375;-79
2022/12/23 04:30:39;;;;;;;;;;;204.80;2252.80;;;;;;5018410;28;20483;-79
2022/12/23 04:33:05;;;;;;;116.30;64.70;;;180.10;2252.80;;;;;;5027634;28;19912;-79
2022/12/23 04:35:31;;;;;;;;;;;180.00;2252.80;;;;;;5025784;28;20053;-79
2022/12/23 04:37:56;;;;;;;117.65;60.80;;;180.00;2252.80;;;;;;5025366;28;19913;-79
2022/12/23 04:40:22;;;;;;;;;;;180.10;2252.80;;;;;;5026365;28;20056;-79
2022/12/23 04:42:48;;;;;;;127.53;66.55;;;204.90;2252.80;;;;;;5026825;28;20367;-79
2022/12/23 04:45:13;;;;;;;;;;;205.00;2252.80;;;;;;5034546;28;20040;-79
2022/12/23 04:47:39;;;;;;;117.50;64.63;;;204.90;2252.80;;;;;;5025816;28;20420;-79
2022/12/23 04:50:05;;;;;;;;;;;204.80;2252.80;;;;;;5022444;28;20021;-79
2022/12/23 04:52:31;;;;;;;120.43;66.10;;;180.10;2252.80;;;;;;5022117;28;19948;-79
2022/12/23 04:54:56;;;;;;;;;;;180.10;2252.80;;;;;;5029144;28;20051;-79
2022/12/23 04:57:22;;;;;;;133.70;64.75;;;180.00;2252.80;;;;;;5019938;28;19992;-79
2022/12/23 04:59:48;;;;;;;;;;;180.00;2252.80;;;;;;5019146;28;20025;-79
2022/12/23 05:02:13;;;;;;;120.55;64.25;;;179.90;2252.80;;;;;;5027115;28;19909;-79
2022/12/23 05:04:39;;;;;;;;;;;179.90;1894.40;;;;;;5025834;28;20026;-79
2022/12/23 05:07:05;;;;;;;123.93;65.97;;;180.00;1945.60;;;;;;5025361;28;20472;-79
2022/12/23 05:09:30;;;;;;;;;;;179.90;2022.40;;;;;;5028786;28;20029;-79
2022/12/23 05:11:56;;;;;;;120.88;66.00;;;179.90;1971.20;;;;;;5025557;28;19912;-79
2022/12/23 05:14:22;;;;;;;;;;;179.90;2201.60;;;;;;5028212;28;20122;-79
2022/12/23 05:16:47;;;;;;;116.28;64.07;;;179.90;1996.80;;;;;;5031674;28;20040;-79
2022/12/23 05:19:13;;;;;;;;;;;179.90;1920.00;;;;;;5025305;28;20022;-80
2022/12/23 05:21:38;;;;;;;123.13;68.90;;;180.00;2252.80;;;;;;5024818;28;20377;-79
2022/12/23 05:24:04;;;;;;;;;;;179.90;1945.60;;;;;;5019966;28;20022;-79
2022/12/23 05:26:30;;;;;;;128.05;67.25;;;179.90;2022.40;;;;;;5033845;28;19905;-79
2022/12/23 05:28:55;;;;;;;;;;;179.90;1996.80;;;;;;5030501;28;20390;-79
2022/12/23 05:31:21;;;;;;;123.82;67.80;;;179.80;2252.80;;;;;;5022285;28;19921;-79
2022/12/23 05:33:47;;;;;;;;;;;179.90;2252.80;;;;;;5025254;28;20022;-79
2022/12/23 05:36:12;;;;;;;122.30;64.38;;;180.00;2252.80;;;;;;5026131;28;19905;-79
2022/12/23 05:38:38;;;;;;;;;;;204.80;2252.80;;;;;;5024988;28;20129;-79
2022/12/23 05:41:05;;;;;;;134.55;72.50;;;204.80;2252.80;;;;;;5021318;28;20005;-79
2022/12/23 05:43:31;;;;;;;137.13;76.32;;;204.90;2252.80;;;;;;5026643;28;20573;-79
2022/12/23 05:45:57;;;;;;;;;;;204.90;2252.80;;;;;;5025990;28;20101;-79
2022/12/23 05:48:22;;;;;;;134.02;72.53;;;204.90;2227.20;;;;;;5026957;28;19956;-79
2022/12/23 05:50:52;;;;;;;;;;;205.00;2252.80;;;;;;5021666;28;20044;-79
2022/12/23 05:53:20;;;;;;;124.93;70.82;;;205.00;2252.80;;;;;;5026398;28;20432;-79
2022/12/23 05:55:46;;;;;;;132.80;76.53;;;205.10;2124.80;;;;;;5023775;28;20065;-79
2022/12/23 05:58:12;;;;;;;;;;;205.20;2252.80;;;;;;5017633;28;20037;-80
2022/12/23 06:00:38;;;;;;;148.00;78.60;;;205.30;2252.80;;;;;;5025344;28;19905;-80
2022/12/23 06:03:03;;;;;;;;;;;205.20;2252.80;;;;;;5024450;28;20386;-79
2022/12/23 06:05:29;;;;;;;135.52;75.60;;;205.30;2252.80;;;;;;5029660;28;20358;-79
2022/12/23 06:07:55;;;;;;;;;;;205.30;2252.80;;;;;;5017750;28;20121;-79
2022/12/23 06:10:20;;;;;;;137.15;76.47;;;205.30;2252.80;;;;;;5019417;28;19914;-79
2022/12/23 06:12:46;;;;;;;;;;;205.30;2252.80;;;;;;5021364;28;20117;-79
2022/12/23 06:15:12;;;;;;;130.40;72.45;;;205.30;2252.80;;;;;;5020579;28;19924;-79
2022/12/23 06:17:38;;;;;;;137.82;78.18;;;205.40;2252.80;;;;;;5020762;28;20129;-77
2022/12/23 06:20:03;;;;;;;;;;;205.40;2252.80;;;;;;5016642;28;20028;-85
2022/12/23 06:22:30;;;;;;;137.85;76.88;;;205.40;2252.80;;;;;;5025970;28;19991;-78
2022/12/23 06:24:56;;;;;;;150.73;78.38;;;205.40;2252.80;;;;;;5027586;28;20513;-78
2022/12/23 06:27:21;;;;;;;;;;;205.40;2252.80;;;;;;5028994;28;20022;-78
2022/12/23 06:29:47;;;;;;;139.23;79.30;;;205.40;2252.80;;;;;;5022969;28;19992;-77
2022/12/23 06:32:13;;;;;;;;;;;205.40;2252.80;;;;;;5024232;28;20029;-78
2022/12/23 06:34:38;;;;;;;141.88;79.97;;;205.40;2252.80;;;;;;5028868;28;19940;-77
2022/12/23 06:37:04;;;;;;;;;;;205.40;2252.80;;;;;;5015525;28;20045;-78
2022/12/23 06:39:30;;;;;;;151.18;93.32;;;205.40;2252.80;;;;;;5019426;28;20000;-78
2022/12/23 06:41:56;;;;;;;157.35;84.65;;;205.50;2252.80;;;;;;5026133;28;20055;-83
2022/12/23 06:44:21;;;;;;;147.25;83.57;;;205.50;2252.80;;;;;;5021059;28;20112;-77
2022/12/23 06:46:47;;;;;;;;;;;205.50;2252.80;;;;;;5027647;28;20022;-80
2022/12/23 06:49:13;;;;;;;151.32;86.32;;;205.60;2252.80;;;;;;5025937;28;19996;-80
2022/12/23 06:51:38;;;;;;;;;;;205.50;2252.80;;;;;;5029789;28;20378;-79
2022/12/23 06:54:04;;;;;;;136.68;79.15;;;205.50;2252.80;;;;;;5025327;28;19921;-77
2022/12/23 06:56:29;;;;;;;;;;;205.50;2252.80;;;;;;5026443;28;20383;-77
2022/12/23 06:58:55;;;;;;;140.98;77.35;;;205.60;2252.80;;;;;;5023836;28;20415;-77
2022/12/23 07:01:21;;;;;;;143.10;83.88;;;205.50;2252.80;;;;;;5024139;28;20028;-78
2022/12/23 07:03:46;;;;;;;;;;;205.60;2252.80;;;;;;5021845;28;20022;-78
2022/12/23 07:06:12;;;;;;;140.48;78.55;;;205.60;2252.80;;;;;;5020195;28;19955;-82
2022/12/23 07:08:38;;;;;;;;;;;205.50;2252.80;;;;;;5025069;28;20110;-82
2022/12/23 07:11:04;;;;;;;164.85;90.05;;;205.50;2252.80;;;;;;5038536;28;20405;-76
2022/12/23 07:13:29;;;;;;;;;;;205.40;2252.80;;;;;;5020471;28;20386;-78
2022/12/23 07:15:55;;;;;;;138.73;80.13;;;205.50;2252.80;;;;;;5026567;28;20360;-79
2022/12/23 07:18:21;;;;;;;;;;;205.60;2252.80;;;;;;5027178;28;20505;-77
2022/12/23 07:20:48;;;;;;;153.40;85.00;;;230.40;2252.80;;;;;;5026691;28;19905;-79
2022/12/23 07:23:13;;;;;;;133.32;80.72;;;205.70;2252.80;;;;;;5025542;28;20466;-78
2022/12/23 07:25:39;;;;;;;;;;;230.40;2252.80;;;;;;5021517;28;20029;-77
2022/12/23 07:28:05;;;;;;;131.07;77.90;;;230.40;2252.80;;;;;;5029067;28;20341;-79
2022/12/23 07:30:30;;;;;;;;;;;230.40;2252.80;;;;;;5026276;28;20478;-79
2022/12/23 07:32:56;;;;;;;180.38;96.43;;;205.70;2252.80;;;;;;5058014;28;19966;-79
2022/12/23 07:35:22;;;;;;;;;;;230.40;2252.80;;;;;;5026060;28;20486;-79
2022/12/23 07:37:52;;;;;;;139.75;77.28;;;230.50;2252.80;;;;;;5023670;28;19969;-78
2022/12/23 07:40:18;;;;;;;144.90;82.78;;;230.40;2252.80;;;;;;5025376;28;20498;-79
2022/12/23 07:42:46;;;;;;;169.18;95.10;;;230.50;2252.80;;;;;;5019375;28;20093;-78
2022/12/23 07:45:12;;;;;;;145.55;87.10;;;230.40;2252.80;;;;;;5031106;28;20029;-80
2022/12/23 07:47:38;;;;;;;;;;;230.40;2252.80;;;;;;5024901;28;20026;-80
2022/12/23 07:50:04;;;;;;;136.00;77.80;;;230.40;2252.80;;;;;;5028903;28;19909;-80
2022/12/23 07:52:29;;;;;;;140.95;83.65;;;230.50;2252.80;;;;;;5034372;28;20037;-78
2022/12/23 07:54:55;;;;;;;;;;;230.50;2252.80;;;;;;5031214;28;20053;-79
2022/12/23 07:57:21;;;;;;;134.40;79.28;;;230.50;2252.80;;;;;;5030487;28;19955;-78
2022/12/23 07:59:46;;;;;;;;;;;230.40;2252.80;;;;;;5030620;28;20026;-80
2022/12/23 08:02:12;;;;;;;136.02;81.18;;;230.40;2252.80;;;;;;5059982;28;19913;-80
2022/12/23 08:04:37;;;;;;;;;;;230.50;2252.80;;;;;;5036224;28;20121;-80
2022/12/23 08:07:03;;;;;;;143.77;81.47;;;230.60;2252.80;;;;;;5026997;28;19912;-80
2022/12/23 08:09:29;;;;;;;;;;;230.60;2252.80;;;;;;5033119;28;20499;-79
2022/12/23 08:11:54;;;;;;;144.88;80.65;;;230.60;2252.80;;;;;;5054469;28;19909;-80
2022/12/23 08:14:20;;;;;;;;;;;230.60;2252.80;;;;;;5026390;28;20034;-79
2022/12/23 08:16:47;;;;;;;131.35;77.15;;;230.70;2252.80;;;;;;5026831;28;19912;-79
2022/12/23 08:19:12;;;;;;;166.68;90.45;;;230.70;2252.80;;;;;;5025903;28;20113;-79
2022/12/23 08:21:38;;;;;;;153.65;81.80;;;230.70;2252.80;;;;;;5020868;28;20137;-79
2022/12/23 08:24:04;;;;;;;130.63;80.47;;;230.80;2252.80;;;;;;5027184;28;20032;-80
2022/12/23 08:26:31;;;;;;;144.95;84.97;;;230.90;2252.80;;;;;;5027028;28;20033;-79
2022/12/23 08:28:57;;;;;;;143.95;81.80;;;231.00;2252.80;;;;;;5023821;28;20026;-79
2022/12/23 08:31:25;;;;;;;155.40;86.75;;;231.00;2252.80;;;;;;5022168;28;20453;-79
2022/12/23 08:33:54;;;;;;;132.38;79.68;;;231.10;2252.80;;;;;;5025442;28;20036;-79
2022/12/23 08:36:23;;;;;;;135.90;79.75;;;231.10;2252.80;;;;;;5025492;28;20040;-78
2022/12/23 08:38:50;;;;;;;124.32;80.47;;;231.10;2252.80;;;;;;5020128;28;20029;-79
2022/12/23 08:41:20;;;;;;;121.32;74.30;;;231.20;2252.80;;;;;;5023629;28;20028;-80
2022/12/23 08:43:46;;;;;;;129.90;79.00;;;231.30;2252.80;;;;;;5027552;28;20552;-79
2022/12/23 08:46:11;;;;;;;135.90;79.32;;;256.00;2252.80;;;;;;5020886;28;20021;-79
2022/12/23 08:48:37;;;;;;;;;;;231.30;2252.80;;;;;;5019940;28;20474;-78
2022/12/23 08:51:05;;;;;;;131.35;77.53;;;256.00;2252.80;;;;;;5062020;28;19944;-78
2022/12/23 08:53:33;;;;;;;127.10;78.25;;;256.10;2252.80;;;;;;5017378;28;20046;-82
2022/12/23 08:56:05;;;;;;;135.75;78.95;;;256.00;2252.80;;;;;;5027897;28;20130;-81
2022/12/23 08:58:34;;;;;;;128.52;78.80;;;256.20;2252.80;;;;;;5026979;28;20566;-81
2022/12/23 09:01:03;;;;;;;124.97;78.88;;;256.20;2252.80;;;;;;5032050;28;20036;-81
2022/12/23 09:03:29;;;;;;;129.70;79.43;;;256.30;2252.80;;;;;;5030907;28;20388;-80
2022/12/23 09:05:54;;;;;;;136.98;80.22;;;256.30;2252.80;;;;;;5023222;28;20032;-81
2022/12/23 09:08:20;;;;;;;;;;;256.20;2252.80;;;;;;5029312;28;20082;-81
2022/12/23 09:10:46;;;;;;;140.70;80.38;;;256.20;2252.80;;;;;;5028132;28;19905;-82
2022/12/23 09:13:11;;;;;;;;;;;256.20;2252.80;;;;;;5024483;28;20018;-80
2022/12/23 09:15:44;;;;;;;133.48;79.38;;;256.30;2252.80;;;;;;5054530;28;19971;-80
2022/12/23 09:18:10;;;;;;;135.93;83.07;;;256.30;2252.80;;;;;;5025038;28;20029;-82
2022/12/23 09:20:37;;;;;;;148.50;85.65;;;256.30;2252.80;;;;;;5020931;28;20060;-81
2022/12/23 09:23:04;;;;;;;142.18;84.47;;;256.40;2252.80;;;;;;5019728;28;20065;-82
2022/12/23 09:25:31;;;;;;;152.77;86.38;;;256.50;2252.80;;;;;;5025761;28;20030;-82
2022/12/23 09:27:57;;;;;;;132.73;82.65;;;256.60;2252.80;;;;;;5028585;28;20029;-81
2022/12/23 09:30:23;;;;;;;151.13;87.45;;;256.50;2252.80;;;;;;5019780;28;20032;-82
2022/12/23 09:32:48;;;;;;;;;;;256.70;2252.80;;;;;;5031236;28;20485;-81
2022/12/23 09:35:14;;;;;;;132.83;83.43;;;256.90;2252.80;;;;;;5034177;28;19915;-82
2022/12/23 09:37:40;;;;;;;;;;;281.70;2278.40;;;;;;5017523;28;20022;-80
2022/12/23 09:40:10;;;;;;;119.40;76.18;;;282.00;2278.40;;;;;;5052304;28;20273;-83
2022/12/23 09:42:39;;;;;;;132.75;77.80;;;282.10;2278.40;;;;;;5024986;28;20056;-80
2022/12/23 09:45:15;;;;;;;134.95;81.32;;;282.20;2278.40;;;;;;5023440;28;20025;-79
2022/12/23 09:47:43;;;;;;;124.00;77.75;;;282.50;2278.40;;;;;;5020750;28;20021;-80
2022/12/23 09:50:20;;;;;;;108.93;70.13;;;307.30;2304.00;;;;;;5020483;28;20030;-80
2022/12/23 09:53:00;;;;;;;108.32;68.68;;;307.50;2304.00;;;;;;5020240;28;20101;-79
2022/12/23 09:55:44;;;;;;;118.45;79.30;;;307.80;2304.00;;;;;;5020021;28;20506;-80
2022/12/23 09:58:21;;;;;;;122.20;75.32;;;307.80;2304.00;;;;;;5019855;28;20078;-80
2022/12/23 10:01:02;;;;;;;102.40;67.22;;;307.90;2304.00;;;;;;5024610;28;20581;-80
2022/12/23 10:04:09;;;;;;;117.22;76.13;;;308.10;2304.00;;;;;;5043241;28;20117;-80
2022/12/23 10:06:36;;;;;;;91.47;58.70;;;308.10;2304.00;;;;;;5034618;28;20050;-80
2022/12/23 10:09:05;;;;;;;118.78;74.50;;;308.00;2304.00;;;;;;5023245;28;20136;-81
2022/12/23 10:11:36;;;;;;;111.38;68.70;;;332.80;2329.60;;;;;;5000714;28;20124;-80
2022/12/23 10:14:11;;;;;;;91.18;59.63;;;333.00;2329.60;;;;;;5015516;28;20082;-79
2022/12/23 10:16:48;;;;;;;100.22;61.72;;;333.40;2329.60;;;;;;5034204;28;20125;-80
2022/12/23 10:19:22;;;;;;;97.45;63.95;;;333.60;2329.60;;;;;;5008850;28;20030;-79
2022/12/23 10:21:53;;;;;;;97.45;61.22;;;358.50;2329.60;;;;;;5015978;28;20117;-79
2022/12/23 10:24:24;;;;;;;98.70;63.30;;;358.40;2329.60;;;;;;5036365;28;20034;-79
2022/12/23 10:26:55;;;;;;;100.30;63.65;;;358.80;2329.60;;;;;;4994218;28;20495;-80
2022/12/23 10:29:24;;;;;;;94.03;62.10;;;358.90;2329.60;;;;;;5003408;28;20024;-79
2022/12/23 10:32:18;;;;;;;92.82;60.15;;;358.90;2329.60;;;;;;5016119;28;20029;-80
2022/12/23 10:35:05;;;;;;;102.40;68.28;;;358.90;2329.60;;;;;;5000832;28;20034;-80
2022/12/23 10:37:37;;;;;;;126.45;75.13;;;359.00;2329.60;;;;;;5005465;28;20030;-80
2022/12/23 10:40:02;;;;;;;103.68;66.63;;;359.00;2329.60;;;;;;5035495;28;20165;-80
2022/12/23 10:43:00;;;;;;;101.97;67.28;;;359.00;2329.60;;;;;;5042271;28;20120;-79
2022/12/23 10:45:54;;;;;;;111.43;68.10;;;358.90;2329.60;;;;;;5029814;28;20037;-79
2022/12/23 10:48:32;;;;;;;121.55;77.18;;;358.90;2329.60;;;;;;5024472;28;20022;-80
2022/12/23 10:51:29;;;;;;;88.85;59.15;;;359.00;2329.60;;;;;;5022523;28;20026;-79
2022/12/23 10:54:04;;;;;;;100.20;65.10;;;358.90;2329.60;;;;;;5019989;28;20080;-83
2022/12/23 10:56:30;;;;;;;101.57;66.13;;;358.90;2329.60;;;;;;5025742;28;20091;-79
2022/12/23 10:58:59;;;;;;;103.60;67.20;;;359.20;2329.60;;;;;;5021389;28;20037;-85
2022/12/23 11:01:27;;;;;;;95.78;63.50;;;384.00;2329.60;;;;;;5021418;28;20472;-83
2022/12/23 11:04:02;;;;;;;89.40;58.65;;;384.20;2329.60;;;;;;5019430;28;20117;-85
2022/12/23 11:06:29;;;;;;;91.47;59.67;;;384.30;2329.60;;;;;;5024989;28;20026;-82
2022/12/23 11:08:58;;;;;;;87.90;57.88;;;384.40;2329.60;;;;;;5023908;28;20508;-82
2022/12/23 11:11:23;;;;;;;97.70;65.82;;;384.50;2329.60;;;;;;5021941;28;20041;-82
2022/12/23 11:13:49;;;;;;;99.05;64.20;;;384.30;2329.60;;;;;;5016853;28;20022;-82
2022/12/23 11:16:27;;;;;;;102.65;68.28;;;384.10;2329.60;;;;;;5024614;28;20026;-82
2022/12/23 11:19:02;;;;;;;94.72;65.03;;;384.00;2329.60;;;;;;5020749;28;20096;-81
2022/12/23 11:21:30;;;;;;;97.35;64.82;;;359.30;2329.60;;;;;;5029357;28;20451;-80
2022/12/23 11:24:16;;;;;;;96.07;62.15;;;384.00;2329.60;;;;;;5024436;28;20030;-80
2022/12/23 11:26:48;;;;;;;94.50;62.38;;;359.00;2329.60;;;;;;5029329;28;20170;-80
2022/12/23 11:29:27;;;;;;;99.90;64.88;;;358.80;2329.60;;;;;;5026708;28;20023;-80
2022/12/23 11:31:53;;;;;;;85.35;58.85;;;358.80;2329.60;;;;;;5028788;28;20033;-78
2022/12/23 11:34:22;;;;;;;94.28;60.72;;;358.70;2329.60;;;;;;5017399;28;20040;-81
2022/12/23 11:36:57;;;;;;;97.60;62.35;;;358.60;2329.60;;;;;;5025918;28;20026;-74
2022/12/23 11:39:29;;;;;;;93.47;60.28;;;358.60;2329.60;;;;;;5022094;28;20030;-82
2022/12/23 11:42:02;;;;;;;90.88;57.67;;;358.50;2329.60;;;;;;5025760;28;20084;-78
2022/12/23 11:44:36;;;;;;;90.90;59.60;;;358.50;2329.60;;;;;;5024391;28;20474;-81
2022/12/23 11:47:34;;;;;;;87.07;59.25;;;358.40;2329.60;;;;;;5022468;28;20033;-80
2022/12/23 11:50:15;;;;;;;87.28;56.20;;;358.50;2329.60;;;;;;5021042;28;20120;-79
2022/12/23 11:52:52;;;;;;;86.22;54.92;;;358.60;2329.60;;;;;;5025375;28;20577;-80
2022/12/23 11:55:31;;;;;;;98.93;64.10;;;358.50;2329.60;;;;;;5031241;28;20533;-79
2022/12/23 11:57:59;;;;;;;96.50;63.05;;;358.60;2329.60;;;;;;5019258;28;20024;-90
2022/12/23 12:00:37;;;;;;;97.28;62.58;;;358.60;2329.60;;;;;;5023483;28;20034;-80
2022/12/23 12:03:05;;;;;;;93.28;63.17;;;358.50;2329.60;;;;;;5031970;28;20022;-80
2022/12/23 12:05:35;;;;;;;105.75;63.75;;;358.50;2329.60;;;;;;5018390;28;20406;-79
2022/12/23 12:08:17;;;;;;;112.60;65.90;;;358.50;2329.60;;;;;;5022246;28;20036;-79
2022/12/23 12:10:43;;;;;;;100.85;64.00;;;358.50;2329.60;;;;;;5029932;28;20401;-79
2022/12/23 12:13:29;;;;;;;96.00;62.88;;;358.50;2329.60;;;;;;5021045;28;20026;-80
2022/12/23 12:16:20;;;;;;;91.72;59.90;;;358.50;2329.60;;;;;;5024508;28;20050;-84
2022/12/23 12:18:48;;;;;;;83.55;51.00;;;358.40;2329.60;;;;;;5011221;28;20117;-80
2022/12/23 12:21:19;;;;;;;88.47;58.25;;;333.70;2329.60;;;;;;5019750;28;20496;-80
2022/12/23 12:23:50;;;;;;;84.38;55.85;;;358.40;2329.60;;;;;;5024089;28;20395;-82
2022/12/23 12:26:26;;;;;;;84.50;52.50;;;358.40;2329.60;;;;;;5028078;28;20079;-78
2022/12/23 12:29:21;;;;;;;79.78;52.13;;;358.50;2329.60;;;;;;5034291;28;20033;-79
2022/12/23 12:31:51;;;;;;;82.28;51.72;;;358.50;2329.60;;;;;;5024183;28;20049;-80
2022/12/23 12:34:55;;;;;;;82.85;53.28;;;358.50;2329.60;;;;;;5023195;28;20052;-79
2022/12/23 12:37:34;;;;;;;79.60;50.10;;;358.40;2329.60;;;;;;5023205;28;20167;-79
2022/12/23 12:40:02;;;;;;;80.65;51.83;;;333.70;2329.60;;;;;;5029343;28;20026;-80
2022/12/23 12:42:41;;;;;;;75.45;48.08;;;333.70;2329.60;;;;;;5030311;28;20438;-80
2022/12/23 12:45:21;;;;;;;78.82;49.75;;;333.70;2329.60;;;;;;5041727;28;20993;-80
2022/12/23 12:48:12;;;;;;;71.75;44.30;;;333.70;2329.60;;;;;;5028807;28;20033;-79
2022/12/23 12:50:55;;;;;;;74.57;46.13;;;333.70;2329.60;;;;;;5021597;28;20026;-79
2022/12/23 12:53:22;;;;;;;62.05;39.85;;;333.70;2329.60;;;;;;5038208;28;20030;-81
2022/12/23 12:55:55;;;;;;;55.83;37.65;;;358.40;2329.60;;;;;;5022732;28;20046;-80
2022/12/23 12:58:23;;;;;;;62.13;39.88;;;358.40;2329.60;;;;;;5026646;28;20121;-80
2022/12/23 13:01:08;;;;;;;62.78;39.13;;;358.40;2329.60;;;;;;5025519;28;20072;-83
2022/12/23 13:03:58;;;;;;;62.10;41.33;;;358.50;2329.60;;;;;;5023854;28;20115;-78